Glenhaven, CA (95443)

6:02 AM PDT on September 01, 2015 (GMT -0700)
Indian Beach | | Change Station
CLOSE
Current Station
Personal Weather Station
Location: Clearlake Oaks, CA
Elevation: 1339 ft
Nearby Weather Stations

Elev 1339 ft 39.02 °N, 122.72 °W | Updated 3 minutes ago

Clear
Clear
62.4 °F
Feels Like 62.4 °F
N
0.7
Wind Variable Wind from South
Gusts 1.3 mph

Today
High -- | Low -- °F
--% Chance of Precip.
Yesterday
High -- | Low -- °F
Precip. -- in
6:39 AM 7:41 PM
Waning Gibbous, 89% visible
Pressure 29.85 in
Visibility 10.0 miles
Clouds Clear
Dew Point 53 °F
Humidity 63%
Rainfall 0.00 in
Snow Depth Not available.
UV 0 out of 12
Pollen 8.10 out of 12
Air Quality Not available.
Flu Activity Not available.
METAR KUKI 011256Z AUTO 00000KT 10SM CLR 12/09 A2987 RMK AO2 SLP107 T01220089
Pressure 29.85 in
Visibility 10.0 miles
Clouds Clear
Dew Point 53 °F
Humidity 63%
Rainfall 0.00 in
Snow Depth Not available.
UV 0 out of 12
Pollen 8.10 out of 12
Air Quality Not available.
Flu Activity Not available.
METAR KUKI 011256Z AUTO 00000KT 10SM CLR 12/09 A2987 RMK AO2 SLP107 T01220089

10-Day Weather Forecast

×

Almanac

Astronomy

Sep. 01, 2015 Rise Set
Actual Time
Civil Twilight
Nautical Twilight
Astronomical Twilight
Moon
Length of Visible Light
Length of Day
Tomorrow will be .
, % of the Moon is Illuminated

Today's Extremes

State Highs State Lows

Community

WunderPhotos

Upload Photos

1,851,513 photos uploaded!

WunderBlogs® & News

Nearby

Air Quality

  Air Quality AQ Index Pollutant
Not available.

Snow Depth

Station Depth Elevation

Earthquake Activity

City Distance Mag. Time & Date
Minimum magnitude displayed is 2.5.

Coastal Water Temperatures

Place Temperature

Stations

Nearby Weather Stations

Station Location Temp. Windchill Dew Point Humidity Wind Precip. Elev Updated Type